Time;durP1;ratioP1;P1;durP2;ratioP2;P2;SDS_P1;SDS_P2;PMS_P1;PMS_P2;Temp;Humidity;BMP_temperature;BMP_pressure;BME280_temperature;BME280_humidity;BME280_pressure;Samples;Min_cycle;Max_cycle;Signal;HPM_P1;HPM_P2
2022/11/06 00:02:20;;;;;;;16.75;7.18;;;;;;;;;;4937466;28;20220;-82
2022/11/06 00:04:46;;;;;;;13.68;7.90;;;;;;;;;;4950105;28;20458;-81
2022/11/06 00:07:14;;;;;;;20.05;8.75;;;;;;;;;;4954752;28;20516;-82
2022/11/06 00:09:46;;;;;;;15.40;7.20;;;;;;;;;;4966525;28;20205;-81
2022/11/06 00:12:11;;;;;;;20.42;8.02;;;;;;;;;;4962306;28;20514;-81
2022/11/06 00:14:37;;;;;;;25.40;9.77;;;;;;;;;;4943795;28;20038;-78
2022/11/06 00:17:02;;;;;;;19.35;7.93;;;;;;;;;;4919075;28;20062;-77
2022/11/06 00:19:28;;;;;;;16.20;8.45;;;;;;;;;;4943441;28;20434;-79
2022/11/06 00:22:03;;;;;;;17.02;9.00;;;;;;;;;;4974582;28;20049;-81
2022/11/06 00:24:31;;;;;;;18.17;9.75;;;;;;;;;;4974115;28;20042;-80
2022/11/06 00:26:57;;;;;;;19.08;9.82;;;;;;;;;;4959578;28;20260;-78
2022/11/06 00:29:28;;;;;;;21.75;9.05;;;;;;;;;;4955829;28;20538;-81
2022/11/06 00:31:54;;;;;;;22.27;8.03;;;;;;;;;;4930450;28;20038;-80
2022/11/06 00:34:19;;;;;;;15.50;7.93;;;;;;;;;;4934314;28;20050;-79
2022/11/06 00:36:45;;;;;;;17.38;7.93;;;;;;;;;;4925906;28;20034;-77
2022/11/06 00:39:10;;;;;;;20.55;7.82;;;;;;;;;;4932706;28;22287;-78
2022/11/06 00:41:36;;;;;;;27.48;15.32;;;;;;;;;;4889285;28;20653;-78
2022/11/06 00:44:02;;;;;;;17.60;8.18;;;;;;;;;;4920690;28;20057;-78
2022/11/06 00:46:28;;;;;;;21.52;8.90;;;;;;;;;;4928857;28;20366;-77
2022/11/06 00:49:00;;;;;;;19.52;9.45;;;;;;;;;;4923486;28;20127;-78
2022/11/06 00:51:32;;;;;;;16.98;7.68;;;;;;;;;;4924250;28;20172;-78
2022/11/06 00:54:02;;;;;;;20.73;8.18;;;;;;;;;;4932212;28;20048;-77
2022/11/06 00:56:29;;;;;;;;;;;;;;;;;;4946495;28;20451;-77
2022/11/06 00:58:55;;;;;;;19.13;8.25;;;;;;;;;;4910025;28;19973;-78
2022/11/06 01:01:39;;;;;;;15.65;8.02;;;;;;;;;;4920737;28;20703;-78
2022/11/06 01:04:12;;;;;;;19.38;9.00;;;;;;;;;;4933582;28;20697;-78
2022/11/06 01:06:39;;;;;;;17.63;10.00;;;;;;;;;;4945264;28;20062;-78
2022/11/06 01:09:05;;;;;;;21.48;9.75;;;;;;;;;;4925972;28;20038;-78
2022/11/06 01:11:32;;;;;;;19.13;11.07;;;;;;;;;;4923398;28;20033;-78
2022/11/06 01:13:58;;;;;;;33.03;18.05;;;;;;;;;;4935071;28;20038;-79
2022/11/06 01:16:27;;;;;;;23.73;14.23;;;;;;;;;;4943963;28;20049;-78
2022/11/06 01:18:56;;;;;;;23.42;11.23;;;;;;;;;;4901575;28;20532;-78
2022/11/06 01:21:23;;;;;;;17.33;10.98;;;;;;;;;;4891384;28;20561;-78
2022/11/06 01:23:52;;;;;;;21.30;10.32;;;;;;;;;;4912423;28;20048;-77
2022/11/06 01:26:18;;;;;;;18.58;9.93;;;;;;;;;;4915759;28;20050;-77
2022/11/06 01:28:43;;;;;;;18.05;10.18;;;;;;;;;;4932211;28;20038;-77
2022/11/06 01:31:18;;;;;;;22.48;10.73;;;;;;;;;;4959677;28;20141;-83
2022/11/06 01:33:44;;;;;;;18.95;11.15;;;;;;;;;;4954602;28;20039;-80
2022/11/06 01:36:11;;;;;;;24.45;11.50;;;;;;;;;;4956882;28;20073;-77
2022/11/06 01:38:43;;;;;;;27.45;11.30;;;;;;;;;;4914577;28;20584;-78
2022/11/06 01:41:12;;;;;;;26.67;12.05;;;;;;;;;;4912928;28;20038;-78
2022/11/06 01:43:45;;;;;;;21.83;11.48;;;;;;;;;;4912665;28;20255;-78
2022/11/06 01:46:22;;;;;;;22.75;11.30;;;;;;;;;;4942383;28;20041;-78
2022/11/06 01:49:03;;;;;;;31.42;10.40;;;;;;;;;;4927125;28;20046;-79
2022/11/06 01:51:30;;;;;;;19.60;10.50;;;;;;;;;;4922661;28;20078;-78
2022/11/06 01:53:56;;;;;;;21.42;10.77;;;;;;;;;;4932512;28;20091;-79
2022/11/06 01:56:22;;;;;;;22.15;9.80;;;;;;;;;;4919763;28;20058;-77
2022/11/06 01:58:50;;;;;;;18.55;9.68;;;;;;;;;;4950928;28;20201;-79
2022/11/06 02:01:16;;;;;;;24.70;10.98;;;;;;;;;;4952277;28;20149;-79
2022/11/06 02:03:49;;;;;;;17.80;10.52;;;;;;;;;;4959016;28;20050;-78
2022/11/06 02:06:19;;;;;;;;;;;;;;;;;;4937976;28;20041;-78
2022/11/06 02:08:50;;;;;;;18.15;9.77;;;;;;;;;;4932130;28;20401;-78
2022/11/06 02:11:16;;;;;;;23.52;11.27;;;;;;;;;;4927064;28;20899;-78
2022/11/06 02:13:56;;;;;;;20.75;11.40;;;;;;;;;;4939693;28;20030;-78
2022/11/06 02:16:50;;;;;;;27.02;11.07;;;;;;;;;;4943264;28;20298;-77
2022/11/06 02:19:42;;;;;;;22.33;10.93;;;;;;;;;;4939209;28;20729;-77
2022/11/06 02:22:29;;;;;;;23.20;11.93;;;;;;;;;;4944754;28;20503;-78
2022/11/06 02:24:58;;;;;;;22.88;11.85;;;;;;;;;;4938135;28;20046;-78
2022/11/06 02:27:24;;;;;;;17.63;10.65;;;;;;;;;;4938040;28;20364;-79
2022/11/06 02:29:52;;;;;;;21.90;10.38;;;;;;;;;;4942779;28;20037;-78
2022/11/06 02:32:41;;;;;;;20.50;9.75;;;;;;;;;;4944070;28;20041;-79
2022/11/06 02:35:12;;;;;;;26.13;10.48;;;;;;;;;;4918250;28;20037;-79
2022/11/06 02:37:40;;;;;;;25.38;10.77;;;;;;;;;;4924242;28;20151;-78
2022/11/06 02:40:08;;;;;;;17.70;10.07;;;;;;;;;;4922077;28;20034;-77
2022/11/06 02:42:39;;;;;;;18.60;11.77;;;;;;;;;;4943943;28;20551;-77
2022/11/06 02:45:09;;;;;;;18.67;11.68;;;;;;;;;;4953555;28;20609;-77
2022/11/06 02:47:35;;;;;;;18.50;10.95;;;;;;;;;;4924990;28;20144;-78
2022/11/06 02:50:16;;;;;;;23.95;12.95;;;;;;;;;;4982973;28;20038;-82
2022/11/06 02:52:54;;;;;;;20.30;10.85;;;;;;;;;;4987298;28;20668;-80
2022/11/06 02:55:47;;;;;;;25.15;14.20;;;;;;;;;;4977235;28;20029;-81
2022/11/06 02:58:17;;;;;;;22.98;11.30;;;;;;;;;;4965471;28;20596;-83
2022/11/06 03:00:46;;;;;;;17.55;10.60;;;;;;;;;;4960210;28;20136;-83
2022/11/06 03:03:16;;;;;;;21.38;12.05;;;;;;;;;;4976521;28;20520;-82
2022/11/06 03:05:53;;;;;;;15.88;10.68;;;;;;;;;;4960873;28;20113;-82
2022/11/06 03:08:39;;;;;;;17.15;10.07;;;;;;;;;;4956185;28;20038;-81
2022/11/06 03:11:19;;;;;;;22.38;11.32;;;;;;;;;;4964599;28;20031;-81
2022/11/06 03:13:51;;;;;;;21.75;12.30;;;;;;;;;;4971486;28;20108;-81
2022/11/06 03:16:20;;;;;;;27.75;12.73;;;;;;;;;;4995556;28;20041;-82
2022/11/06 03:19:01;;;;;;;24.75;13.02;;;;;;;;;;4980835;28;20072;-81
2022/11/06 03:21:42;;;;;;;26.17;13.20;;;;;;;;;;4978417;28;20133;-81
2022/11/06 03:24:07;;;;;;;;;;;;;;;;;;4979046;28;20064;-78
2022/11/06 03:26:37;;;;;;;24.65;12.32;;;;;;;;;;4955721;28;19921;-79
2022/11/06 03:29:05;;;;;;;23.50;11.80;;;;;;;;;;4976280;28;20033;-79
2022/11/06 03:31:34;;;;;;;22.50;12.63;;;;;;;;;;4986168;28;20034;-76
2022/11/06 03:34:14;;;;;;;18.27;12.05;;;;;;;;;;4967404;28;20030;-76
2022/11/06 03:36:42;;;;;;;21.17;12.65;;;;;;;;;;4953325;28;20157;-76
2022/11/06 03:39:28;;;;;;;19.35;12.93;;;;;;;;;;4961411;28;20030;-79
2022/11/06 03:42:03;;;;;;;20.75;11.88;;;;;;;;;;4976177;28;20520;-79
2022/11/06 03:44:31;;;;;;;19.83;13.23;;;;;;;;;;4961670;28;20112;-82
2022/11/06 03:47:04;;;;;;;17.40;13.57;;;;;;;;;;4958115;28;20120;-78
2022/11/06 03:49:34;;;;;;;18.27;15.07;;;;;;;;;;4968236;28;20116;-80
2022/11/06 03:52:02;;;;;;;19.60;13.77;;;;;;;;;;4968315;28;20071;-76
2022/11/06 03:54:33;;;;;;;22.20;14.98;;;;;;;;;;4950735;28;20058;-79
2022/11/06 03:57:04;;;;;;;23.02;16.05;;;;;;;;;;4982385;28;20073;-80
2022/11/06 03:59:35;;;;;;;22.83;16.98;;;;;;;;;;4973220;28;21411;-79
2022/11/06 04:02:12;;;;;;;22.70;17.65;;;;;;;;;;4938317;28;20050;-79
2022/11/06 04:04:50;;;;;;;22.30;17.25;;;;;;;;;;4951466;28;20041;-81
2022/11/06 04:07:24;;;;;;;27.17;19.85;;;;;;;;;;4988107;28;20056;-80
2022/11/06 04:15:37;;;;;;;28.77;19.83;;;;;;;;;;4964937;28;20165;-79
2022/11/06 04:18:20;;;;;;;29.00;20.52;;;;;;;;;;4955306;28;20036;-79
2022/11/06 04:26:34;;;;;;;37.03;23.00;;;;;;;;;;4986164;28;20062;-79
2022/11/06 04:26:43;;;;;;;40.70;25.88;;;;;;;;;;4995080;28;20049;-80
2022/11/06 04:29:17;;;;;;;31.60;25.58;;;;;;;;;;5000141;28;20124;-80
2022/11/06 04:32:01;;;;;;;37.22;26.60;;;;;;;;;;5023883;28;20037;-80
2022/11/06 04:34:32;;;;;;;37.05;29.40;;;;;;;;;;4982539;28;20169;-80
2022/11/06 04:37:00;;;;;;;45.83;31.02;;;;;;;;;;4994798;28;20102;-80
2022/11/06 04:39:33;;;;;;;38.97;30.67;;;;;;;;;;4974817;28;20091;-80
2022/11/06 04:42:11;;;;;;;50.10;33.70;;;;;;;;;;4969306;28;20112;-80
2022/11/06 04:44:42;;;;;;;44.35;30.90;;;;;;;;;;4974900;28;20031;-81
2022/11/06 04:47:10;;;;;;;47.33;31.83;;;;;;;;;;5002508;28;20026;-80
2022/11/06 04:49:38;;;;;;;43.95;29.67;;;;;;;;;;4966695;28;20033;-82
2022/11/06 04:52:20;;;;;;;43.78;29.80;;;;;;;;;;4989181;28;20438;-81
2022/11/06 04:55:01;;;;;;;44.72;30.30;;;;;;;;;;4950049;28;25177;-83
2022/11/06 04:57:40;;;;;;;48.50;31.63;;;;;;;;;;4952899;28;20029;-83
2022/11/06 05:00:18;;;;;;;50.63;34.20;;;;;;;;;;4970359;28;20069;-82
2022/11/06 05:02:44;;;;;;;54.38;36.92;;;;;;;;;;4981128;28;20038;-82
2022/11/06 05:05:18;;;;;;;58.35;38.35;;;;;;;;;;4928802;28;20042;-80
2022/11/06 05:07:47;;;;;;;50.30;35.67;;;;;;;;;;4960221;28;20125;-82
2022/11/06 05:10:13;;;;;;;63.85;40.13;;;;;;;;;;4949782;28;20471;-78
2022/11/06 05:12:46;;;;;;;44.40;32.50;;;;;;;;;;4944302;28;20146;-78
2022/11/06 05:15:25;;;;;;;46.95;34.58;;;;;;;;;;4932204;28;20041;-78
2022/11/06 05:17:57;;;;;;;56.30;38.38;;;;;;;;;;4912912;28;20041;-78
2022/11/06 05:20:26;;;;;;;49.95;34.10;;;;;;;;;;4948058;28;20812;-78
2022/11/06 05:23:02;;;;;;;49.55;33.60;;;;;;;;;;4933632;28;20395;-78
2022/11/06 05:25:35;;;;;;;57.42;37.60;;;;;;;;;;4926435;28;20049;-79
2022/11/06 05:28:05;;;;;;;52.92;35.90;;;;;;;;;;4925212;28;20118;-78
2022/11/06 05:30:34;;;;;;;55.28;37.72;;;;;;;;;;4896739;28;20562;-78
2022/11/06 05:33:01;;;;;;;49.30;33.13;;;;;;;;;;4941094;28;20038;-78
2022/11/06 05:35:26;;;;;;;46.00;33.63;;;;;;;;;;4918627;28;20033;-85
2022/11/06 05:38:01;;;;;;;47.75;32.55;;;;;;;;;;4962391;28;20030;-78
2022/11/06 05:40:31;;;;;;;49.65;31.80;;;;;;;;;;4886584;28;20138;-77
2022/11/06 05:42:57;;;;;;;45.15;32.30;;;;;;;;;;4921473;28;20492;-78
2022/11/06 05:45:23;;;;;;;44.25;32.75;;;;;;;;;;4930217;28;20046;-78
2022/11/06 05:47:48;;;;;;;60.63;37.35;;;;;;;;;;4948864;28;20139;-78
2022/11/06 05:50:14;;;;;;;50.58;35.40;;;;;;;;;;4956784;28;20060;-78
2022/11/06 05:52:51;;;;;;;54.05;35.67;;;;;;;;;;4938665;28;20031;-78
2022/11/06 05:55:23;;;;;;;54.25;34.22;;;;;;;;;;4857686;28;20326;-77
2022/11/06 05:57:56;;;;;;;44.30;32.50;;;;;;;;;;4931379;28;20092;-78
2022/11/06 06:00:31;;;;;;;45.00;32.00;;;;;;;;;;4923602;28;20099;-80
2022/11/06 06:03:03;;;;;;;57.97;36.80;;;;;;;;;;4923792;28;20117;-77
2022/11/06 06:05:28;;;;;;;61.75;34.03;;;;;;;;;;4920271;28;20049;-77
2022/11/06 06:07:54;;;;;;;58.08;37.60;;;;;;;;;;4943569;28;20545;-77
2022/11/06 06:10:25;;;;;;;51.67;33.33;;;;;;;;;;4949753;28;20841;-77
2022/11/06 06:12:53;;;;;;;61.10;36.47;;;;;;;;;;4926804;28;20045;-77
2022/11/06 06:15:24;;;;;;;49.70;32.67;;;;;;;;;;4918740;28;20512;-78
2022/11/06 06:17:59;;;;;;;43.35;31.27;;;;;;;;;;4995998;28;20455;-80
2022/11/06 06:20:25;;;;;;;65.55;36.75;;;;;;;;;;4955630;28;20109;-79
2022/11/06 06:22:54;;;;;;;59.28;35.88;;;;;;;;;;4982454;28;20046;-81
2022/11/06 06:25:21;;;;;;;49.70;31.45;;;;;;;;;;4979826;28;20399;-81
2022/11/06 06:27:49;;;;;;;47.38;33.45;;;;;;;;;;5002918;28;20253;-78
2022/11/06 06:30:18;;;;;;;54.38;35.55;;;;;;;;;;4991770;28;20038;-79
2022/11/06 06:32:44;;;;;;;52.45;34.90;;;;;;;;;;4997879;28;20041;-79
2022/11/06 06:35:09;;;;;;;62.08;39.20;;;;;;;;;;4960600;28;20457;-78
2022/11/06 06:37:35;;;;;;;62.20;38.80;;;;;;;;;;4952147;28;20092;-79
2022/11/06 06:40:06;;;;;;;71.28;40.90;;;;;;;;;;4933490;28;20665;-78
2022/11/06 06:42:34;;;;;;;68.53;44.13;;;;;;;;;;4943891;28;22689;-78
2022/11/06 06:45:06;;;;;;;61.53;38.50;;;;;;;;;;4927869;28;20283;-78
2022/11/06 06:47:34;;;;;;;67.53;41.38;;;;;;;;;;4921675;28;20483;-78
2022/11/06 06:50:02;;;;;;;63.25;38.40;;;;;;;;;;4932567;28;20403;-80
2022/11/06 06:52:30;;;;;;;62.25;39.03;;;;;;;;;;4954816;28;20038;-81
2022/11/06 06:54:56;;;;;;;62.22;41.50;;;;;;;;;;4971360;28;20030;-81
2022/11/06 06:57:22;;;;;;;84.63;46.58;;;;;;;;;;4952539;28;20065;-79
2022/11/06 06:59:48;;;;;;;76.75;46.38;;;;;;;;;;4978120;28;20048;-79
2022/11/06 07:02:19;;;;;;;69.80;42.47;;;;;;;;;;4963806;28;20085;-79
2022/11/06 07:05:13;;;;;;;66.43;40.47;;;;;;;;;;4920845;28;20126;-80
2022/11/06 07:07:48;;;;;;;56.90;37.70;;;;;;;;;;4886676;28;20035;-81
2022/11/06 07:10:18;;;;;;;52.53;32.95;;;;;;;;;;4933380;28;20050;-81
2022/11/06 07:12:46;;;;;;;43.55;31.38;;;;;;;;;;4892247;28;20170;-78
2022/11/06 07:15:12;;;;;;;33.50;25.30;;;;;;;;;;4901763;28;20459;-77
2022/11/06 07:17:37;;;;;;;44.63;31.35;;;;;;;;;;4910854;28;20671;-77
2022/11/06 07:20:06;;;;;;;48.88;31.15;;;;;;;;;;4889406;28;20047;-77
2022/11/06 07:22:32;;;;;;;46.00;31.30;;;;;;;;;;4922786;28;20504;-79
2022/11/06 07:24:58;;;;;;;45.42;28.13;;;;;;;;;;4949517;28;20055;-80
2022/11/06 07:27:27;;;;;;;46.38;30.90;;;;;;;;;;4924174;28;20031;-77
2022/11/06 07:29:56;;;;;;;39.72;26.65;;;;;;;;;;4914019;28;20046;-78
2022/11/06 07:32:22;;;;;;;39.05;27.80;;;;;;;;;;4906890;28;20150;-78
2022/11/06 07:34:48;;;;;;;45.35;30.80;;;;;;;;;;4895059;28;20843;-78
2022/11/06 07:37:15;;;;;;;49.08;30.95;;;;;;;;;;4916079;28;20115;-78
2022/11/06 07:39:41;;;;;;;49.42;31.17;;;;;;;;;;4923718;28;20577;-78
2022/11/06 07:42:07;;;;;;;42.92;30.10;;;;;;;;;;4898172;28;20249;-78
2022/11/06 07:44:53;;;;;;;33.10;24.92;;;;;;;;;;4932274;28;20499;-81
2022/11/06 07:47:26;;;;;;;35.25;24.42;;;;;;;;;;4921817;28;20043;-77
2022/11/06 07:49:52;;;;;;;51.15;30.38;;;;;;;;;;4976022;28;20117;-85
2022/11/06 07:52:20;;;;;;;55.63;30.60;;;;;;;;;;4927001;28;20558;-77
2022/11/06 07:54:53;;;;;;;43.08;27.98;;;;;;;;;;4918605;28;20047;-82
2022/11/06 07:57:18;;;;;;;39.08;24.00;;;;;;;;;;4950827;28;20174;-78
2022/11/06 07:59:44;;;;;;;43.88;25.10;;;;;;;;;;4963195;28;20398;-83
2022/11/06 08:02:11;;;;;;;32.22;21.63;;;;;;;;;;4934488;28;20771;-78
2022/11/06 08:04:37;;;;;;;28.75;19.10;;;;;;;;;;4942901;28;20271;-78
2022/11/06 08:07:03;;;;;;;33.08;20.13;;;;;;;;;;4951443;28;20041;-77
2022/11/06 08:09:30;;;;;;;40.15;22.65;;;;;;;;;;4935388;28;20042;-77
2022/11/06 08:12:17;;;;;;;37.45;20.65;;;;;;;;;;4928175;28;20178;-77
2022/11/06 08:14:43;;;;;;;29.92;18.25;;;;;;;;;;4913637;28;20046;-76
2022/11/06 08:17:10;;;;;;;36.60;18.13;;;;;;;;;;4940083;28;20525;-78
2022/11/06 08:19:36;;;;;;;29.90;18.23;;;;;;;;;;4953334;28;20038;-77
2022/11/06 08:22:23;;;;;;;40.03;21.50;;;;;;;;;;4957137;28;20479;-77
2022/11/06 08:24:48;;;;;;;48.05;25.83;;;;;;;;;;4960823;28;20598;-78
2022/11/06 08:27:14;;;;;;;48.42;29.23;;;;;;;;;;4944695;28;20034;-78
2022/11/06 08:29:42;;;;;;;35.95;21.45;;;;;;;;;;4964070;28;20210;-78
2022/11/06 08:32:07;;;;;;;38.83;21.30;;;;;;;;;;4928406;28;20382;-78
2022/11/06 08:34:59;;;;;;;43.17;23.55;;;;;;;;;;4943594;28;20057;-78
2022/11/06 08:37:24;;;;;;;28.50;16.13;;;;;;;;;;4943642;28;20069;-78
2022/11/06 08:39:50;;;;;;;35.50;18.90;;;;;;;;;;4941308;28;20037;-77
2022/11/06 08:42:15;;;;;;;32.47;17.67;;;;;;;;;;4907168;28;20525;-77
2022/11/06 08:44:41;;;;;;;28.55;15.35;;;;;;;;;;4935166;28;20493;-78
2022/11/06 08:47:07;;;;;;;30.55;14.38;;;;;;;;;;4946889;28;20037;-77
2022/11/06 08:49:32;;;;;;;25.33;11.77;;;;;;;;;;4951653;28;20413;-78
2022/11/06 08:52:15;;;;;;;;;;;;;;;;;;4953085;28;20313;-77
2022/11/06 08:54:40;;;;;;;21.00;11.52;;;;;;;;;;4965151;28;19917;-78
2022/11/06 08:57:08;;;;;;;26.55;15.13;;;;;;;;;;4942768;28;20352;-77
2022/11/06 08:59:36;;;;;;;28.65;16.02;;;;;;;;;;4946362;28;20057;-77
2022/11/06 09:02:01;;;;;;;30.88;17.63;;;;;;;;;;4945227;28;20231;-77
2022/11/06 09:04:27;;;;;;;26.25;16.48;;;;;;;;;;4963466;28;20042;-82
2022/11/06 09:06:52;;;;;;;28.00;17.90;;;;;;;;;;4965514;28;20046;-83
2022/11/06 09:09:18;;;;;;;28.00;16.75;;;;;;;;;;4967079;28;20483;-83
2022/11/06 09:11:49;;;;;;;28.75;18.42;;;;;;;;;;4959082;28;20391;-83
2022/11/06 09:14:27;;;;;;;30.77;18.88;;;;;;;;;;4905401;28;20117;-84
2022/11/06 09:16:57;;;;;;;41.97;24.20;;;;;;;;;;4890293;28;20121;-84
2022/11/06 09:19:25;;;;;;;44.90;26.95;;;;;;;;;;4954040;28;20090;-82
2022/11/06 09:21:53;;;;;;;48.83;24.02;;;;;;;;;;4957529;28;20034;-84
2022/11/06 09:24:19;;;;;;;70.13;37.58;;;;;;;;;;4972315;28;20078;-84
2022/11/06 09:26:44;;;;;;;58.50;33.15;;;;;;;;;;4976493;28;20128;-82
2022/11/06 09:29:10;;;;;;;47.67;31.88;;;;;;;;;;4945536;28;20101;-83
2022/11/06 09:31:36;;;;;;;45.50;27.20;;;;;;;;;;4934393;28;20034;-84
2022/11/06 09:34:04;;;;;;;43.20;18.77;;;;;;;;;;4940976;28;20527;-84
2022/11/06 09:36:33;;;;;;;39.35;19.45;;;;;;;;;;4922782;28;20496;-85
2022/11/06 09:38:59;;;;;;;34.08;15.90;;;;;;;;;;4917161;28;20031;-83
2022/11/06 09:41:35;;;;;;;25.80;12.45;;;;;;;;;;4959222;28;20026;-85
2022/11/06 09:44:19;;;;;;;25.65;12.13;;;;;;;;;;4933821;28;20529;-84
2022/11/06 09:46:50;;;;;;;30.50;12.32;;;;;;;;;;4967268;28;20030;-83
2022/11/06 09:49:24;;;;;;;32.17;13.52;;;;;;;;;;4939906;28;20070;-84
2022/11/06 09:51:54;;;;;;;27.10;12.82;;;;;;;;;;4969132;28;20039;-81
2022/11/06 09:54:22;;;;;;;24.67;13.95;;;;;;;;;;4980591;28;20372;-82
2022/11/06 09:56:49;;;;;;;21.73;11.57;;;;;;;;;;4941712;28;20515;-84
2022/11/06 09:59:16;;;;;;;21.42;9.90;;;;;;;;;;4975874;28;20046;-86
2022/11/06 10:01:48;;;;;;;26.88;11.38;;;;;;;;;;4981299;28;20034;-84
2022/11/06 10:04:25;;;;;;;22.02;9.80;;;;;;;;;;4980331;28;20054;-83
2022/11/06 10:06:54;;;;;;;23.55;10.07;;;;;;;;;;4958124;28;20046;-87
2022/11/06 10:09:23;;;;;;;40.60;16.50;;;;;;;;;;4974928;28;20755;-86
2022/11/06 10:11:50;;;;;;;32.60;14.65;;;;;;;;;;4970314;28;20034;-88
2022/11/06 10:14:23;;;;;;;30.48;12.90;;;;;;;;;;4940339;28;20401;-77
2022/11/06 10:16:48;;;;;;;40.03;17.48;;;;;;;;;;4934136;28;20061;-77
2022/11/06 10:19:13;;;;;;;43.03;21.95;;;;;;;;;;4929643;28;20043;-77
2022/11/06 10:21:39;;;;;;;46.38;24.35;;;;;;;;;;4941072;28;20157;-77
2022/11/06 10:24:10;;;;;;;35.35;16.75;;;;;;;;;;4927095;28;20434;-77
2022/11/06 10:26:38;;;;;;;50.17;21.52;;;;;;;;;;4938724;28;22228;-76
2022/11/06 10:29:06;;;;;;;53.83;27.88;;;;;;;;;;4929691;28;20292;-77
2022/11/06 10:31:41;;;;;;;41.05;22.60;;;;;;;;;;4924315;28;20124;-74
2022/11/06 10:34:06;;;;;;;43.40;21.70;;;;;;;;;;4895059;28;20034;-76
2022/11/06 10:36:38;;;;;;;31.10;13.27;;;;;;;;;;4945813;28;20364;-75
2022/11/06 10:39:11;;;;;;;23.58;9.10;;;;;;;;;;4941622;28;20051;-81
2022/11/06 10:41:40;;;;;;;29.50;10.10;;;;;;;;;;4948117;28;20115;-82
2022/11/06 10:44:13;;;;;;;21.90;8.75;;;;;;;;;;4941942;28;20035;-83
2022/11/06 10:46:41;;;;;;;21.80;8.18;;;;;;;;;;4974164;28;20495;-84
2022/11/06 10:49:22;;;;;;;22.92;10.32;;;;;;;;;;4970610;28;20037;-77
2022/11/06 10:52:08;;;;;;;23.65;8.02;;;;;;;;;;4921378;28;20311;-77
2022/11/06 10:54:34;;;;;;;21.15;7.30;;;;;;;;;;4934611;28;20034;-77
2022/11/06 10:57:17;;;;;;;28.48;11.50;;;;;;;;;;4943223;28;20046;-76
2022/11/06 10:59:43;;;;;;;21.63;8.05;;;;;;;;;;4923338;28;20391;-75
2022/11/06 11:02:23;;;;;;;33.25;15.40;;;;;;;;;;4964338;28;20675;-77
2022/11/06 11:04:51;;;;;;;32.55;15.52;;;;;;;;;;4977493;28;20069;-83
2022/11/06 11:07:16;;;;;;;35.13;17.90;;;;;;;;;;4990452;28;20498;-82
2022/11/06 11:09:44;;;;;;;36.28;20.05;;;;;;;;;;4998607;28;20178;-82
2022/11/06 11:12:29;;;;;;;35.63;18.00;;;;;;;;;;4984845;28;20035;-83
2022/11/06 11:15:09;;;;;;;21.63;8.77;;;;;;;;;;4993560;28;20038;-83
2022/11/06 11:17:35;;;;;;;22.92;10.52;;;;;;;;;;4965799;28;20521;-77
2022/11/06 11:20:01;;;;;;;15.27;7.85;;;;;;;;;;4960911;28;20270;-84
2022/11/06 11:22:26;;;;;;;30.30;13.80;;;;;;;;;;4982551;28;20061;-84
2022/11/06 11:25:00;;;;;;;34.28;18.73;;;;;;;;;;5007248;28;20077;-82
2022/11/06 11:27:31;;;;;;;28.52;16.35;;;;;;;;;;4975754;28;20038;-83
2022/11/06 11:29:59;;;;;;;18.60;10.35;;;;;;;;;;4988865;28;20247;-84
2022/11/06 11:32:27;;;;;;;17.95;11.55;;;;;;;;;;4965620;28;20075;-82
2022/11/06 11:34:54;;;;;;;25.55;19.00;;;;;;;;;;4974041;28;20037;-77
2022/11/06 11:37:37;;;;;;;14.75;9.40;;;;;;;;;;4950540;28;20038;-77
2022/11/06 11:40:18;;;;;;;27.27;15.35;;;;;;;;;;4968147;28;20072;-78
2022/11/06 11:42:43;;;;;;;21.63;13.73;;;;;;;;;;4953417;28;20034;-77
2022/11/06 11:45:08;;;;;;;37.50;18.20;;;;;;;;;;4958652;28;20062;-77
2022/11/06 11:47:38;;;;;;;23.50;14.75;;;;;;;;;;4977631;28;20053;-82
2022/11/06 11:50:23;;;;;;;42.33;24.67;;;;;;;;;;4969843;28;20518;-81
2022/11/06 11:52:49;;;;;;;38.63;23.13;;;;;;;;;;4970791;28;21895;-80
2022/11/06 11:55:16;;;;;;;34.08;20.42;;;;;;;;;;4969242;28;20429;-83
2022/11/06 11:57:49;;;;;;;34.65;19.08;;;;;;;;;;4983147;28;20760;-80
2022/11/06 12:00:17;;;;;;;31.42;18.40;;;;;;;;;;4974435;28;20541;-76
2022/11/06 12:02:45;;;;;;;21.60;14.40;;;;;;;;;;4965527;28;20030;-77
2022/11/06 12:05:14;;;;;;;34.22;17.80;;;;;;;;;;4959681;28;20073;-77
2022/11/06 12:07:43;;;;;;;32.08;18.85;;;;;;;;;;4964102;28;20290;-78
2022/11/06 12:10:32;;;;;;;39.72;22.88;;;;;;;;;;4962746;28;20668;-78
2022/11/06 12:13:01;;;;;;;39.58;25.73;;;;;;;;;;4953238;28;20037;-78
2022/11/06 12:15:29;;;;;;;41.55;25.27;;;;;;;;;;4964342;28;20034;-76
2022/11/06 12:18:04;;;;;;;35.33;22.45;;;;;;;;;;4948542;28;20034;-78
2022/11/06 12:20:35;;;;;;;34.90;22.75;;;;;;;;;;4944854;28;21148;-77
2022/11/06 12:23:01;;;;;;;32.15;21.65;;;;;;;;;;4958198;28;20597;-77
2022/11/06 12:25:34;;;;;;;29.55;17.98;;;;;;;;;;4963774;28;20107;-78
2022/11/06 12:28:03;;;;;;;16.90;8.70;;;;;;;;;;4959631;28;20161;-75
2022/11/06 12:30:42;;;;;;;20.90;12.07;;;;;;;;;;4947962;28;20045;-77
2022/11/06 12:33:12;;;;;;;35.22;20.15;;;;;;;;;;4941752;28;20867;-77
2022/11/06 12:36:06;;;;;;;31.58;18.40;;;;;;;;;;4948268;28;20034;-77
2022/11/06 12:38:31;;;;;;;29.60;20.52;;;;;;;;;;4936409;28;20177;-77
2022/11/06 12:41:28;;;;;;;51.92;26.05;;;;;;;;;;4945311;28;20040;-77
2022/11/06 12:43:59;;;;;;;35.83;21.13;;;;;;;;;;4949561;28;20037;-77
2022/11/06 12:46:40;;;;;;;36.97;19.13;;;;;;;;;;4923343;28;20038;-77
2022/11/06 12:49:06;;;;;;;32.83;17.05;;;;;;;;;;4958019;28;20036;-76
2022/11/06 12:51:40;;;;;;;21.30;12.00;;;;;;;;;;4941163;28;20632;-77
2022/11/06 12:54:08;;;;;;;20.40;10.88;;;;;;;;;;4937724;28;20037;-77
2022/11/06 12:57:04;;;;;;;35.15;15.07;;;;;;;;;;4953087;28;20044;-77
2022/11/06 12:59:37;;;;;;;24.23;10.95;;;;;;;;;;4958498;28;20299;-77
2022/11/06 13:02:02;;;;;;;18.35;8.30;;;;;;;;;;4962350;28;20037;-77
2022/11/06 13:04:31;;;;;;;21.08;10.23;;;;;;;;;;4945085;28;20490;-77
2022/11/06 13:07:18;;;;;;;30.85;12.65;;;;;;;;;;4937505;28;20051;-77
2022/11/06 13:09:54;;;;;;;26.25;14.82;;;;;;;;;;4946205;28;20504;-77
2022/11/06 13:12:25;;;;;;;22.23;12.68;;;;;;;;;;4949559;28;20038;-77
2022/11/06 13:14:59;;;;;;;21.75;11.65;;;;;;;;;;4949642;28;20444;-77
2022/11/06 13:17:29;;;;;;;39.85;23.05;;;;;;;;;;4957948;28;20058;-77
2022/11/06 13:20:13;;;;;;;23.38;10.13;;;;;;;;;;4939260;28;20176;-77
2022/11/06 13:22:39;;;;;;;20.98;9.30;;;;;;;;;;4915990;28;20072;-76
2022/11/06 13:25:18;;;;;;;20.80;10.10;;;;;;;;;;4932182;28;20352;-77
2022/11/06 13:27:48;;;;;;;32.67;12.55;;;;;;;;;;4927754;28;20474;-79
2022/11/06 13:30:17;;;;;;;20.85;10.27;;;;;;;;;;4964151;28;20037;-80
2022/11/06 13:32:57;;;;;;;26.85;12.65;;;;;;;;;;4984538;28;20072;-77
2022/11/06 13:35:23;;;;;;;11.02;7.00;;;;;;;;;;4971034;28;20098;-81
2022/11/06 13:37:50;;;;;;;28.55;12.05;;;;;;;;;;4964656;28;20379;-82
2022/11/06 13:40:19;;;;;;;35.22;15.23;;;;;;;;;;4955569;28;20441;-84
2022/11/06 13:42:50;;;;;;;29.63;11.77;;;;;;;;;;4956329;28;20042;-84
2022/11/06 13:45:16;;;;;;;31.42;14.40;;;;;;;;;;4942386;28;20050;-84
2022/11/06 13:47:48;;;;;;;30.35;13.63;;;;;;;;;;4957491;28;20088;-82
2022/11/06 13:50:22;;;;;;;36.95;19.58;;;;;;;;;;4970131;28;20030;-82
2022/11/06 13:52:57;;;;;;;30.67;15.52;;;;;;;;;;4954816;28;20388;-83
2022/11/06 13:55:43;;;;;;;27.35;12.30;;;;;;;;;;4963985;28;20085;-83
2022/11/06 13:58:26;;;;;;;28.15;13.30;;;;;;;;;;4937076;28;20061;-85
2022/11/06 14:01:13;;;;;;;36.33;16.60;;;;;;;;;;4948307;28;20681;-78
2022/11/06 14:04:00;;;;;;;35.70;16.58;;;;;;;;;;4914236;28;20034;-77
2022/11/06 14:06:28;;;;;;;36.20;20.02;;;;;;;;;;4956575;28;20038;-85
2022/11/06 14:08:57;;;;;;;33.13;16.77;;;;;;;;;;4968900;28;21998;-83
2022/11/06 14:11:29;;;;;;;29.83;16.42;;;;;;;;;;4978399;28;20035;-81
2022/11/06 14:14:06;;;;;;;33.70;16.45;;;;;;;;;;4945215;28;20061;-77
2022/11/06 14:16:33;;;;;;;28.80;15.23;;;;;;;;;;4928317;28;20410;-77
2022/11/06 14:19:12;;;;;;;21.38;9.27;;;;;;;;;;4929386;28;20038;-77
2022/11/06 14:21:38;;;;;;;33.38;17.55;;;;;;;;;;4957119;28;20030;-77
2022/11/06 14:24:05;;;;;;;38.28;20.45;;;;;;;;;;4938552;28;20073;-77
2022/11/06 14:26:41;;;;;;;23.63;15.25;;;;;;;;;;4953350;28;20052;-79
2022/11/06 14:29:27;;;;;;;34.35;18.33;;;;;;;;;;4944903;28;20034;-76
2022/11/06 14:32:01;;;;;;;32.92;16.90;;;;;;;;;;4913409;28;20041;-79
2022/11/06 14:34:33;;;;;;;29.38;16.70;;;;;;;;;;4954197;28;20042;-78
2022/11/06 14:37:21;;;;;;;29.65;16.80;;;;;;;;;;4949947;28;20029;-78
2022/11/06 14:39:50;;;;;;;30.95;17.55;;;;;;;;;;4934625;28;20101;-78
2022/11/06 14:42:26;;;;;;;28.20;13.32;;;;;;;;;;4933606;28;20038;-78
2022/11/06 14:44:56;;;;;;;25.70;14.85;;;;;;;;;;4947045;28;20050;-84
2022/11/06 14:47:25;;;;;;;20.73;11.32;;;;;;;;;;4961893;28;20034;-85
2022/11/06 14:49:52;;;;;;;22.38;13.20;;;;;;;;;;4965738;28;20304;-86
2022/11/06 14:52:27;;;;;;;38.28;17.33;;;;;;;;;;4962618;28;20569;-85
2022/11/06 14:55:04;;;;;;;24.38;11.90;;;;;;;;;;4951591;28;20056;-84